Search for airport 
image banner adimage banner adimage banner ad
image banner ad

2IA2 - Central Community Hospital

Located in Elkader, United States

ICAO - 2IA2, IATA -

Data provided by Airmate  

General information

Coordinates: N42°51'36" W91°24'55"
Elevation is 774 feet MSL.
Magnetic variation is 02° East
View others Airports in Iowa

Operational data

Special qualification required
Current time UTC:
Current local time:
Weather at : KPDC - Prairie Du Chien Muni ( 30 km )
METAR: KPDC 181755Z AUTO 26005KT 10SM CLR 29/15 A2981 RMK AO2 T02890147 10291 20200
View NOTAMs / SUP AIP / TFR affecting this airport [VIEW]
Communications frequencies: [VIEW]

Runways:

Airport contact information

Address: Elkader United States

Satellite view of 2IA2